createdAt,value
2019-05-09T00:00:39.131Z,8.30
2019-05-09T00:03:10.119Z,8.97
2019-05-09T00:05:41.187Z,8.10
2019-05-09T00:08:13.882Z,8.80
2019-05-09T00:10:45.907Z,8.80
2019-05-09T00:13:16.900Z,9.60
2019-05-09T00:15:47.955Z,8.80
2019-05-09T00:18:19.287Z,8.80
2019-05-09T00:21:08.834Z,8.00
2019-05-09T00:23:39.836Z,8.73
2019-05-09T00:26:13.230Z,8.10
2019-05-09T00:28:46.414Z,8.90
2019-05-09T00:31:28.926Z,8.27
2019-05-09T00:34:04.153Z,8.30
2019-05-09T00:36:35.381Z,8.83
2019-05-09T00:39:07.471Z,9.30
2019-05-09T00:41:38.463Z,7.63
2019-05-09T00:44:16.147Z,8.60
2019-05-09T00:47:04.216Z,9.13
2019-05-09T00:49:35.010Z,9.53
2019-05-09T00:52:06.006Z,9.33
2019-05-09T00:54:37.229Z,9.83
2019-05-09T00:57:08.299Z,8.77
2019-05-09T00:59:39.303Z,8.83
2019-05-09T01:02:10.307Z,8.37
2019-05-09T01:04:43.691Z,8.63
2019-05-09T01:07:14.153Z,8.67
2019-05-09T01:09:45.140Z,8.83
2019-05-09T01:12:16.164Z,8.80
2019-05-09T01:14:47.155Z,8.90
2019-05-09T01:17:18.207Z,8.63
2019-05-09T01:20:09.343Z,8.70
2019-05-09T01:22:40.347Z,9.37
2019-05-09T01:25:13.386Z,8.80
2019-05-09T01:27:44.180Z,9.80
2019-05-09T01:30:16.100Z,8.97
2019-05-09T01:33:06.039Z,9.03
2019-05-09T01:35:37.031Z,8.67
2019-05-09T01:38:08.033Z,8.93
2019-05-09T01:40:39.407Z,8.83
2019-05-09T01:43:10.407Z,9.60
2019-05-09T01:45:43.171Z,9.43
2019-05-09T01:48:14.135Z,9.33
2019-05-09T01:50:45.108Z,8.53
2019-05-09T01:53:19.598Z,9.63
2019-05-09T01:56:00.054Z,8.47
2019-05-09T01:58:34.310Z,9.63
2019-05-09T02:01:07.709Z,9.87
2019-05-09T02:03:38.777Z,10.07
2019-05-09T02:06:09.864Z,9.40
2019-05-09T02:08:43.791Z,9.83
2019-05-09T02:11:14.571Z,10.40
2019-05-09T02:13:45.711Z,10.63
2019-05-09T02:16:35.611Z,9.80
2019-05-09T02:19:24.947Z,9.87
2019-05-09T02:21:55.687Z,10.40
2019-05-09T02:24:26.699Z,10.40
2019-05-09T02:26:57.691Z,9.60
2019-05-09T02:29:28.794Z,9.53
2019-05-09T02:31:59.873Z,10.57
2019-05-09T02:34:30.913Z,10.40
2019-05-09T02:37:01.238Z,11.27
2019-05-09T02:39:32.080Z,9.17
2019-05-09T02:42:09.335Z,9.70
2019-05-09T02:44:35.739Z,10.53
2019-05-09T02:47:12.621Z,10.73
2019-05-09T02:49:42.988Z,10.17
2019-05-09T02:52:13.132Z,10.23
2019-05-09T02:54:43.947Z,10.37
2019-05-09T02:57:14.285Z,10.67
2019-05-09T03:00:20.312Z,11.13
2019-05-09T03:03:08.948Z,11.03
2019-05-09T03:05:38.603Z,11.10
2019-05-09T03:08:09.597Z,9.90
2019-05-09T03:10:40.814Z,11.20
2019-05-09T03:13:11.843Z,10.87
2019-05-09T03:15:43.396Z,9.97
2019-05-09T03:18:14.383Z,10.23
2019-05-09T03:21:04.359Z,10.53
2019-05-09T03:23:38.568Z,11.20
2019-05-09T03:26:09.645Z,10.53
2019-05-09T03:29:08.662Z,10.33
2019-05-09T03:31:39.579Z,10.57
2019-05-09T03:34:10.757Z,10.43
2019-05-09T03:36:41.848Z,10.83
2019-05-09T03:39:12.847Z,10.90
2019-05-09T03:41:43.915Z,11.00
2019-05-09T03:44:17.699Z,10.00
2019-05-09T03:47:08.415Z,10.37
2019-05-09T03:49:39.292Z,10.90
2019-05-09T03:52:10.296Z,11.90
2019-05-09T03:54:41.407Z,10.70
2019-05-09T03:57:24.286Z,10.03
2019-05-09T03:59:57.179Z,10.90
2019-05-09T04:02:28.204Z,11.20
2019-05-09T04:04:59.339Z,10.33
2019-05-09T04:07:30.351Z,11.00
2019-05-09T04:10:01.355Z,10.20
2019-05-09T04:12:32.431Z,10.40
2019-05-09T04:15:03.447Z,11.00
2019-05-09T04:17:44.358Z,10.43
2019-05-09T04:20:17.495Z,9.60
2019-05-09T04:22:49.187Z,11.13
2019-05-09T04:25:27.358Z,11.93
2019-05-09T04:27:58.317Z,11.00
2019-05-09T04:30:29.263Z,11.43
2019-05-09T04:33:00.263Z,10.10
2019-05-09T04:35:31.302Z,11.53
2019-05-09T04:38:02.319Z,11.13
2019-05-09T04:40:37.788Z,11.60
2019-05-09T04:43:12.029Z,11.77
2019-05-09T04:45:49.224Z,11.53
2019-05-09T04:48:30.876Z,10.80
2019-05-09T04:51:07.624Z,10.73
2019-05-09T04:53:39.895Z,11.00
2019-05-09T04:56:24.840Z,11.90
2019-05-09T04:58:58.170Z,11.87
2019-05-09T05:01:38.902Z,11.43
2019-05-09T05:04:09.492Z,12.10
2019-05-09T05:06:40.537Z,11.70
2019-05-09T05:09:11.707Z,14.40
2019-05-09T05:11:46.266Z,13.23
2019-05-09T05:14:22.739Z,11.97
2019-05-09T05:16:55.663Z,13.80
2019-05-09T05:19:30.969Z,12.03
2019-05-09T05:22:20.627Z,13.47
2019-05-09T05:24:56.036Z,11.17
2019-05-09T05:27:27.906Z,12.33
2019-05-09T05:29:59.331Z,11.27
2019-05-09T05:32:50.311Z,11.30
2019-05-09T05:35:28.494Z,12.67
2019-05-09T05:37:59.647Z,14.47
2019-05-09T05:40:33.688Z,13.57
2019-05-09T05:43:03.359Z,16.53
2019-05-09T05:45:39.427Z,15.17
2019-05-09T05:48:17.383Z,13.93
2019-05-09T05:50:48.784Z,12.07
2019-05-09T05:53:20.168Z,12.97
2019-05-09T05:55:52.794Z,13.40
2019-05-09T05:58:25.039Z,11.93
2019-05-09T06:00:56.043Z,12.47
2019-05-09T06:03:28.282Z,13.57
2019-05-09T06:05:59.467Z,14.47
2019-05-09T06:08:30.483Z,15.03
2019-05-09T06:11:01.591Z,14.80
2019-05-09T06:13:32.604Z,15.33
2019-05-09T06:16:03.704Z,12.70
2019-05-09T06:18:38.276Z,14.60
2019-05-09T06:21:08.972Z,12.73
2019-05-09T06:23:41.205Z,14.63
2019-05-09T06:26:12.204Z,12.77
2019-05-09T06:28:43.282Z,13.40
2019-05-09T06:31:14.347Z,12.20
2019-05-09T06:33:47.629Z,12.80
2019-05-09T06:36:18.838Z,13.13
2019-05-09T06:38:50.101Z,13.17
2019-05-09T06:41:21.071Z,12.83
2019-05-09T06:44:11.059Z,12.63
2019-05-09T06:46:50.939Z,13.67
2019-05-09T06:49:29.271Z,14.23
2019-05-09T06:51:59.279Z,14.50
2019-05-09T06:54:30.311Z,13.47
2019-05-09T06:57:01.303Z,13.50
2019-05-09T06:59:32.376Z,13.03
2019-05-09T07:02:08.059Z,13.83
2019-05-09T07:04:47.702Z,13.33
2019-05-09T07:07:37.647Z,13.07
2019-05-09T07:10:08.759Z,13.10
2019-05-09T07:12:39.829Z,12.50
2019-05-09T07:15:10.223Z,12.80
2019-05-09T07:17:41.099Z,13.13
2019-05-09T07:20:12.549Z,15.77
2019-05-09T07:22:51.796Z,13.60
2019-05-09T07:25:38.791Z,12.97
2019-05-09T07:28:09.859Z,13.33
2019-05-09T07:31:15.083Z,14.47
2019-05-09T07:34:04.963Z,13.70
2019-05-09T07:36:38.236Z,13.80
2019-05-09T07:39:09.120Z,13.03
2019-05-09T07:41:40.187Z,13.97
2019-05-09T07:44:11.187Z,14.57
2019-05-09T07:46:51.536Z,14.27
2019-05-09T07:49:22.375Z,15.37
2019-05-09T07:51:53.435Z,14.53
2019-05-09T07:54:28.463Z,13.70
2019-05-09T07:56:58.182Z,14.00
2019-05-09T07:59:29.139Z,13.20
2019-05-09T08:02:00.140Z,14.13
2019-05-09T08:04:31.172Z,14.63
2019-05-09T08:07:03.046Z,15.17
2019-05-09T08:09:34.036Z,15.40
2019-05-09T08:12:07.346Z,13.40
2019-05-09T08:14:37.914Z,15.33
2019-05-09T08:17:10.064Z,15.37
2019-05-09T08:19:41.064Z,17.30
2019-05-09T08:22:12.094Z,17.43
2019-05-09T08:24:43.096Z,18.27
2019-05-09T08:27:14.103Z,18.43
2019-05-09T08:29:47.706Z,19.20
2019-05-09T08:32:18.170Z,20.47
2019-05-09T08:34:49.275Z,20.47
2019-05-09T08:37:19.715Z,20.73
2019-05-09T08:39:50.531Z,23.13
2019-05-09T08:42:21.552Z,22.97
2019-05-09T08:44:52.615Z,22.43
2019-05-09T08:47:23.636Z,24.43
2019-05-09T08:50:03.884Z,25.17
2019-05-09T08:52:34.875Z,26.43
2019-05-09T08:55:08.162Z,28.33
2019-05-09T08:57:38.635Z,25.23
2019-05-09T09:00:10.439Z,27.73
2019-05-09T09:02:41.503Z,27.47
2019-05-09T09:05:14.098Z,31.03
2019-05-09T09:07:45.237Z,30.40
2019-05-09T09:10:18.677Z,31.00
2019-05-09T09:12:49.160Z,31.63
2019-05-09T09:15:20.215Z,30.70
2019-05-09T09:17:51.295Z,30.20
2019-05-09T09:20:22.291Z,31.27
2019-05-09T09:22:53.282Z,31.60
2019-05-09T09:25:24.347Z,33.20
2019-05-09T09:27:57.494Z,31.70
2019-05-09T09:30:29.229Z,30.53
2019-05-09T09:33:00.639Z,35.27
2019-05-09T09:35:31.734Z,33.90
2019-05-09T09:38:02.739Z,35.57
2019-05-09T09:40:33.739Z,33.47
2019-05-09T09:43:04.828Z,33.97
2019-05-09T09:45:37.754Z,34.93
2019-05-09T09:48:09.260Z,33.63
2019-05-09T09:50:40.363Z,33.07
2019-05-09T09:53:11.367Z,34.83
2019-05-09T09:55:42.352Z,32.93
2019-05-09T09:58:13.460Z,35.67
2019-05-09T10:01:03.788Z,35.23
2019-05-09T10:03:35.588Z,32.70
2019-05-09T10:06:06.583Z,35.03
2019-05-09T10:08:39.660Z,34.60
2019-05-09T10:11:10.299Z,38.27
2019-05-09T10:13:41.339Z,31.93
2019-05-09T10:16:32.634Z,34.57
2019-05-09T10:19:10.759Z,32.80
2019-05-09T10:21:48.559Z,34.03
2019-05-09T10:24:19.710Z,34.77
2019-05-09T10:27:08.708Z,34.93
2019-05-09T10:29:39.211Z,33.93
2019-05-09T10:32:12.882Z,32.93
2019-05-09T10:34:44.219Z,34.17
2019-05-09T10:37:15.212Z,35.77
2019-05-09T10:39:48.736Z,32.83
2019-05-09T10:42:41.695Z,33.70
2019-05-09T10:45:43.739Z,34.07
2019-05-09T10:48:14.826Z,35.07
2019-05-09T10:50:52.402Z,32.93
2019-05-09T10:53:18.500Z,34.13
2019-05-09T10:55:49.508Z,30.67
2019-05-09T10:58:23.709Z,33.70
2019-05-09T11:00:53.209Z,31.40
2019-05-09T11:03:24.172Z,28.70
2019-05-09T11:05:54.539Z,28.00
2019-05-09T11:08:28.546Z,28.57
2019-05-09T11:10:59.084Z,25.63
2019-05-09T11:13:30.098Z,28.40
2019-05-09T11:16:02.436Z,26.40
2019-05-09T11:18:33.514Z,29.03
2019-05-09T11:21:04.576Z,28.20
2019-05-09T11:23:35.580Z,23.47
2019-05-09T11:26:06.590Z,25.80
2019-05-09T11:28:37.611Z,26.47
2019-05-09T11:31:08.796Z,23.33
2019-05-09T11:33:40.145Z,27.97
2019-05-09T11:36:11.515Z,26.53
2019-05-09T11:38:44.141Z,23.73
2019-05-09T11:41:18.518Z,25.10
2019-05-09T11:43:48.690Z,23.50
2019-05-09T11:46:19.855Z,24.67
2019-05-09T11:48:50.932Z,21.33
2019-05-09T11:51:22.862Z,23.03
2019-05-09T11:53:54.043Z,22.23
2019-05-09T11:56:25.055Z,22.33
2019-05-09T11:58:57.913Z,22.60
2019-05-09T12:01:29.468Z,21.97
2019-05-09T12:04:00.547Z,21.60
2019-05-09T12:06:31.653Z,21.63
2019-05-09T12:09:02.978Z,20.93
2019-05-09T12:11:34.026Z,21.30
2019-05-09T12:18:10.691Z,24.40
2019-05-09T12:20:39.383Z,20.70
2019-05-09T12:23:10.400Z,23.30
2019-05-09T12:25:41.387Z,19.67
2019-05-09T12:28:12.455Z,21.10
2019-05-09T12:30:43.463Z,21.17
2019-05-09T12:33:14.556Z,22.87
2019-05-09T12:35:47.782Z,24.03
2019-05-09T12:38:18.425Z,30.20
2019-05-09T12:40:50.481Z,22.63
2019-05-09T12:43:21.884Z,27.50
2019-05-09T12:45:53.231Z,24.43
2019-05-09T12:48:24.308Z,25.60
2019-05-09T12:50:55.308Z,23.70
2019-05-09T12:53:27.961Z,21.80
2019-05-09T12:56:02.269Z,20.47
2019-05-09T12:58:32.619Z,23.53
2019-05-09T13:01:03.439Z,28.90
2019-05-09T13:03:34.535Z,22.70
2019-05-09T13:06:07.752Z,22.57
2019-05-09T13:08:38.630Z,19.97
2019-05-09T13:44:28.672Z,22.27
2019-05-09T13:46:59.820Z,16.70
2019-05-09T13:49:30.843Z,18.37
2019-05-09T13:52:05.027Z,18.17
2019-05-09T13:54:34.562Z,18.03
2019-05-09T13:57:06.238Z,18.90
2019-05-09T13:59:38.181Z,18.23
2019-05-09T14:02:09.412Z,17.60
2019-05-09T14:04:40.441Z,17.97
2019-05-09T14:07:11.495Z,16.13
2019-05-09T14:09:42.499Z,16.60
2019-05-09T14:12:12.863Z,16.73
2019-05-09T14:14:43.681Z,16.73
2019-05-09T14:17:14.757Z,17.60
2019-05-09T14:19:46.810Z,15.77
2019-05-09T14:22:18.053Z,19.83
2019-05-09T14:24:49.091Z,18.33
2019-05-09T14:27:20.120Z,17.13
2019-05-09T14:29:51.129Z,18.13
2019-05-09T14:32:22.155Z,17.73
2019-05-09T14:34:54.633Z,19.77
2019-05-09T14:37:25.636Z,16.83
2019-05-09T14:40:02.146Z,17.90
2019-05-09T14:42:29.093Z,21.40
2019-05-09T14:45:00.127Z,18.33
2019-05-09T14:47:31.399Z,16.27
2019-05-09T14:50:02.521Z,23.30
2019-05-09T14:52:33.527Z,27.13
2019-05-09T14:55:04.643Z,24.43
2019-05-09T14:57:38.397Z,26.93
2019-05-09T15:00:09.861Z,21.17
2019-05-09T15:02:40.939Z,26.10
2019-05-09T15:05:25.319Z,29.13
2019-05-09T15:07:58.883Z,40.27
2019-05-09T15:10:32.442Z,33.20
2019-05-09T15:13:03.735Z,24.03
2019-05-09T15:15:35.001Z,24.17
2019-05-09T15:18:08.133Z,25.97
2019-05-09T15:20:38.839Z,33.77
2019-05-09T15:23:08.979Z,23.20
2019-05-09T15:25:40.864Z,18.13
2019-05-09T15:28:11.943Z,20.20
2019-05-09T15:30:43.045Z,31.63
2019-05-09T15:33:13.379Z,27.60
2019-05-09T15:35:44.199Z,23.83
2019-05-09T15:38:15.215Z,26.73
2019-05-09T15:40:48.137Z,25.23
2019-05-09T15:43:19.349Z,22.30
2019-05-09T15:46:09.683Z,30.70
2019-05-09T15:48:40.777Z,29.57
2019-05-09T15:51:12.259Z,21.80
2019-05-09T15:53:43.639Z,23.50
2019-05-09T15:56:14.684Z,22.20
2019-05-09T15:58:45.015Z,25.10
2019-05-09T16:01:18.162Z,20.90
2019-05-09T16:03:49.636Z,23.33
2019-05-09T16:06:20.864Z,22.47
2019-05-09T16:08:51.959Z,21.63
2019-05-09T16:11:23.063Z,27.37
2019-05-09T16:13:55.179Z,25.13
2019-05-09T16:16:28.659Z,20.97
2019-05-09T16:18:59.175Z,19.80
2019-05-09T16:21:30.255Z,20.73
2019-05-09T16:24:01.296Z,23.67
2019-05-09T16:26:31.706Z,27.57
2019-05-09T16:29:02.142Z,23.77
2019-05-09T16:31:33.027Z,22.97
2019-05-09T16:34:03.531Z,25.07
2019-05-09T16:36:34.369Z,23.40
2019-05-09T16:39:07.398Z,24.10
2019-05-09T16:41:39.192Z,24.53
2019-05-09T16:44:10.304Z,24.60
2019-05-09T16:46:41.407Z,25.50
2019-05-09T16:49:16.787Z,27.83
2019-05-09T16:51:45.475Z,32.70
2019-05-09T16:54:18.037Z,32.67
2019-05-09T16:56:49.582Z,28.00
2019-05-09T16:59:20.759Z,26.93
2019-05-09T17:01:52.838Z,27.97
2019-05-09T17:04:23.988Z,26.93
2019-05-09T17:06:57.432Z,26.93
2019-05-09T17:09:28.572Z,27.53
2019-05-09T17:12:00.135Z,28.10
2019-05-09T17:14:31.467Z,28.73
2019-05-09T17:17:02.916Z,28.37
2019-05-09T17:19:34.132Z,30.10
2019-05-09T17:22:38.196Z,28.77
2019-05-09T17:25:09.564Z,26.63
2019-05-09T17:27:40.963Z,27.10
2019-05-09T17:30:12.967Z,30.77
2019-05-09T17:32:47.455Z,33.17
2019-05-09T17:35:18.675Z,60.00
2019-05-09T17:37:49.935Z,54.47
2019-05-09T17:40:21.529Z,72.47
2019-05-09T17:42:52.704Z,35.20
2019-05-09T17:45:23.896Z,30.17
2019-05-09T17:47:57.861Z,30.53
2019-05-09T17:50:28.651Z,29.23
2019-05-09T17:52:59.935Z,30.03
2019-05-09T17:55:30.951Z,38.47
2019-05-09T17:58:02.060Z,50.30
2019-05-09T18:00:33.601Z,78.47
2019-05-09T18:03:05.188Z,43.57
2019-05-09T18:05:38.879Z,36.63
2019-05-09T18:08:08.930Z,36.03
2019-05-09T18:10:39.967Z,34.47
2019-05-09T18:13:11.266Z,58.27
2019-05-09T18:15:42.372Z,97.23
2019-05-09T18:18:13.399Z,40.67
2019-05-09T18:20:58.129Z,38.10
2019-05-09T18:23:29.295Z,44.00
2019-05-09T18:26:00.809Z,43.60
2019-05-09T18:28:31.229Z,43.03
2019-05-09T18:31:02.027Z,42.83
2019-05-09T18:33:39.779Z,40.93
2019-05-09T18:36:10.877Z,40.00
2019-05-09T18:38:41.208Z,90.27
2019-05-09T18:41:11.426Z,115.23
